Terminal Aerodrome Forecast
Issued by NWS

Home | Current Version | Previous Version | Text Only | Print | Product List | Glossary On
Versions: 1 2 3 4 5 6 7 8 9 10 11 12 13 14 15 16 17 18 19 20 21 22
000
FTUS45 KSLC 250113 AAA
TAFPVU
TAF AMD
KPVU 250113Z 2501/2524 VRB04KT P6SM VCSH SCT020 BKN040
     FM250300 VRB05KT 2SM -SHSN SCT010 BKN025
     FM250500 32016KT 1SM -SN BR BKN009 OVC020
     FM251000 VRB04KT P6SM VCSH SCT020 BKN040
     FM251900 18006KT P6SM SCT030 BKN090=

USA.gov is the U.S. government's official web portal to all federal, state and local government web resources and services.